Ironwood, MI

10:09 PM CDT on March 29, 2015 (GMT -0500)
North of US 2 | | Change Station
CLOSE
Current Station
Personal Weather Station
Location: Ironwood, MI
Elevation: 1490 ft
Nearby Weather Stations
Active Advisory: Special Statement

Elev 1490 ft 46.47 °N, 90.15 °W | Updated 16 seconds ago

Overcast
Overcast
35.8 °F
Feels Like 29 °F
N
8.7
Wind Variable Wind from West
Gusts 9.8 mph

Today
High -- | Low -- °F
--% Chance of Precip.
Yesterday
High -- | Low -- °F
Precip. -- in
6:46 AM 7:25 PM
Waxing Gibbous, 76% visible
Pressure 29.76 in
Visibility 10.0 miles
Clouds Clear
Windchill 29 °F
Dew Point 30 °F
Humidity 78%
Rainfall 0.18 in
Snow Depth Not available.
UV 0.0 out of 12
Pollen .30 out of 12
Air Quality Not available.
Flu Activity Not available.
METAR KIWD 300255Z AUTO 28008KT 10SM CLR 03/M02 A2976 RMK AO1 52037

More Conditions Fewer Conditions

Pressure 29.76 in
Visibility 10.0 miles
Clouds Clear
Windchill 29 °F
Dew Point 30 °F
Humidity 78%
Rainfall 0.18 in
Snow Depth Not available.
UV 0.0 out of 12
Pollen .30 out of 12
Air Quality Not available.
Flu Activity Not available.
METAR KIWD 300255Z AUTO 28008KT 10SM CLR 03/M02 A2976 RMK AO1 52037

More Conditions Fewer Conditions

10-Day Weather Forecast

Almanac

Astronomy

Mar. 29, 2015 Rise Set
Actual Time
Civil Twilight
Nautical Twilight
Astronomical Twilight
Moon
Length of Visible Light
Length of Day
Tomorrow will be .
, % of the Moon is Illuminated

Today's Extremes

State Highs State Lows

Community

WunderPhotos

Upload Photos

1,809,417 photos uploaded!

WunderBlogs® & News

Nearby

Air Quality

  Air Quality AQ Index Pollutant
Not available.

Snow Depth

Station Depth Elevation

Earthquake Activity

City Distance Mag. Time & Date
Minimum magnitude displayed is 2.5.

Coastal Water Temperatures

Place Temperature

Stations

Nearby Weather Stations

Station Location Temp. Windchill Dew Point Humidity Wind Precip. Elev Updated Type
                   
Special Statement
Statement as of 5:16 PM EDT on March 29, 2015

... Gusty northwest winds this evening...

Expect west to northwest wind gusts as high as 35 to 45 mph this
evening. The strongest winds will occur over the west facing higher
terrain near Lake Superior. These gusty winds will diminish to under
30 mph after midnight.


Kc